NCAR-RAP Real-Time Weather Data

Output produced by METARs form (10 April 2020  07:21 UTC)
found at http://weather.rap.ucar.edu/surface/
 
KORH 100654Z AUTO 27012KT 10SM CLR 02/M06 A2915 RMK AO2 SLP877 T00171056